createdAt,value
2019-02-19T00:00:44.966Z,56.35
2019-02-19T00:03:11.643Z,56.13
2019-02-19T00:05:38.323Z,55.88
2019-02-19T00:08:05.142Z,56.62
2019-02-19T00:10:32.138Z,56.87
2019-02-19T00:12:58.757Z,57.18
2019-02-19T00:15:25.378Z,56.77
2019-02-19T00:17:52.798Z,56.61
2019-02-19T00:20:19.584Z,57.00
2019-02-19T00:22:46.435Z,56.45
2019-02-19T00:25:13.601Z,57.07
2019-02-19T00:27:41.896Z,57.35
2019-02-19T00:30:08.493Z,57.64
2019-02-19T00:32:35.099Z,57.02
2019-02-19T00:35:01.751Z,56.28
2019-02-19T00:37:28.724Z,55.69
2019-02-19T00:39:55.626Z,56.15
2019-02-19T00:42:22.692Z,56.81
2019-02-19T00:44:49.576Z,57.04
2019-02-19T00:47:16.206Z,57.52
2019-02-19T00:49:42.897Z,57.37
2019-02-19T00:52:09.926Z,57.58
2019-02-19T00:54:36.625Z,57.19
2019-02-19T00:57:03.130Z,56.75
2019-02-19T00:59:29.853Z,56.55
2019-02-19T01:01:56.487Z,56.98
2019-02-19T01:04:23.105Z,56.68
2019-02-19T01:06:49.866Z,56.61
2019-02-19T01:09:16.811Z,56.76
2019-02-19T01:11:43.416Z,56.59
2019-02-19T01:14:11.450Z,56.90
2019-02-19T01:16:38.172Z,56.59
2019-02-19T01:19:04.900Z,58.13
2019-02-19T01:21:31.494Z,58.80
2019-02-19T01:23:58.268Z,58.54
2019-02-19T01:26:24.935Z,57.81
2019-02-19T01:28:51.582Z,57.46
2019-02-19T01:31:18.275Z,57.47
2019-02-19T01:33:44.957Z,57.04
2019-02-19T01:36:12.360Z,57.17
2019-02-19T01:38:38.914Z,57.49
2019-02-19T01:41:05.682Z,58.41
2019-02-19T01:43:32.205Z,59.02
2019-02-19T01:45:58.819Z,58.77
2019-02-19T01:48:25.599Z,58.18
2019-02-19T01:50:52.208Z,58.12
2019-02-19T01:53:19.080Z,57.71
2019-02-19T01:55:48.517Z,58.03
2019-02-19T01:58:15.118Z,58.20
2019-02-19T02:00:43.380Z,58.26
2019-02-19T02:03:10.046Z,58.29
2019-02-19T02:05:36.707Z,58.45
2019-02-19T02:08:04.662Z,58.45
2019-02-19T02:10:31.486Z,58.18
2019-02-19T02:12:59.277Z,58.43
2019-02-19T02:15:25.893Z,58.17
2019-02-19T02:17:52.569Z,57.84
2019-02-19T02:20:19.653Z,57.46
2019-02-19T02:22:46.247Z,57.74
2019-02-19T02:25:14.582Z,57.93
2019-02-19T02:27:41.439Z,58.18
2019-02-19T02:30:08.036Z,58.50
2019-02-19T02:32:34.673Z,58.97
2019-02-19T02:35:01.405Z,58.50
2019-02-19T02:37:28.144Z,58.41
2019-02-19T02:39:54.962Z,58.27
2019-02-19T02:42:24.268Z,58.33
2019-02-19T02:44:50.824Z,57.93
2019-02-19T02:47:18.144Z,58.64
2019-02-19T02:49:45.357Z,59.16
2019-02-19T02:52:12.160Z,58.86
2019-02-19T02:54:39.086Z,58.49
2019-02-19T02:57:05.713Z,58.68
2019-02-19T02:59:32.316Z,58.62
2019-02-19T03:01:59.274Z,58.19
2019-02-19T03:04:26.475Z,59.54
2019-02-19T03:06:53.395Z,59.49
2019-02-19T03:09:20.288Z,59.40
2019-02-19T03:11:46.875Z,59.32
2019-02-19T03:14:13.480Z,58.86
2019-02-19T03:16:40.165Z,58.78
2019-02-19T03:19:06.811Z,58.41
2019-02-19T03:21:33.660Z,58.18
2019-02-19T03:24:00.580Z,58.04
2019-02-19T03:26:27.266Z,58.85
2019-02-19T03:28:54.149Z,59.07
2019-02-19T03:31:20.866Z,59.49
2019-02-19T03:33:47.863Z,59.71
2019-02-19T03:36:16.183Z,58.83
2019-02-19T03:38:43.002Z,58.95
2019-02-19T03:41:10.002Z,58.54
2019-02-19T03:43:37.055Z,58.73
2019-02-19T03:46:11.734Z,59.13
2019-02-19T03:48:33.898Z,59.39
2019-02-19T03:51:00.616Z,59.30
2019-02-19T03:53:27.209Z,59.94
2019-02-19T03:55:54.292Z,59.85
2019-02-19T03:58:21.269Z,59.77
2019-02-19T04:00:48.238Z,59.46
2019-02-19T04:03:16.160Z,59.41
2019-02-19T04:05:42.786Z,59.75
2019-02-19T04:08:09.514Z,59.31
2019-02-19T04:10:36.145Z,59.42
2019-02-19T04:13:03.136Z,59.52
2019-02-19T04:15:29.720Z,59.31
2019-02-19T04:17:56.629Z,59.35
2019-02-19T04:20:23.548Z,59.65
2019-02-19T04:22:50.737Z,59.59
2019-02-19T04:25:17.674Z,59.58
2019-02-19T04:27:44.652Z,59.96
2019-02-19T04:30:11.290Z,59.58
2019-02-19T04:32:37.908Z,59.31
2019-02-19T04:35:04.715Z,59.03
2019-02-19T04:37:31.349Z,58.78
2019-02-19T04:39:57.994Z,58.44
2019-02-19T04:42:24.983Z,58.74
2019-02-19T04:44:51.950Z,58.70
2019-02-19T04:47:18.884Z,58.75
2019-02-19T04:49:46.760Z,59.33
2019-02-19T04:52:13.416Z,60.42
2019-02-19T04:54:40.071Z,60.40
2019-02-19T04:57:07.021Z,59.17
2019-02-19T04:59:33.682Z,58.90
2019-02-19T05:02:00.276Z,58.79
2019-02-19T05:04:27.126Z,58.61
2019-02-19T05:06:53.859Z,59.80
2019-02-19T05:09:20.463Z,59.60
2019-02-19T05:11:47.612Z,59.76
2019-02-19T05:14:14.314Z,59.47
2019-02-19T05:16:41.324Z,58.88
2019-02-19T05:19:08.334Z,59.31
2019-02-19T05:21:35.315Z,60.14
2019-02-19T05:24:01.904Z,60.58
2019-02-19T05:26:28.495Z,60.14
2019-02-19T05:28:55.685Z,59.90
2019-02-19T05:31:22.422Z,60.52
2019-02-19T05:33:49.025Z,60.91
2019-02-19T05:36:15.718Z,59.69
2019-02-19T05:38:42.678Z,59.85
2019-02-19T05:41:09.542Z,59.94
2019-02-19T05:43:36.310Z,60.18
2019-02-19T05:46:02.917Z,60.28
2019-02-19T05:48:29.710Z,61.02
2019-02-19T05:50:56.342Z,60.80
2019-02-19T05:53:23.261Z,60.02
2019-02-19T05:55:49.845Z,59.15
2019-02-19T05:58:18.218Z,59.84
2019-02-19T06:00:44.857Z,61.04
2019-02-19T06:03:11.559Z,61.12
2019-02-19T06:05:38.138Z,60.96
2019-02-19T06:08:05.012Z,61.21
2019-02-19T06:10:31.916Z,60.43
2019-02-19T06:12:58.597Z,59.80
2019-02-19T06:15:25.188Z,59.44
2019-02-19T06:17:52.005Z,59.18
2019-02-19T06:20:18.615Z,60.15
2019-02-19T06:22:45.258Z,60.72
2019-02-19T06:25:12.193Z,59.96
2019-02-19T06:27:39.057Z,59.20
2019-02-19T06:30:05.722Z,59.37
2019-02-19T06:32:32.363Z,59.56
2019-02-19T06:34:59.284Z,59.29
2019-02-19T06:37:25.951Z,58.82
2019-02-19T06:39:52.718Z,58.80
2019-02-19T06:42:19.464Z,58.43
2019-02-19T06:44:46.116Z,58.16
2019-02-19T06:47:12.771Z,58.02
2019-02-19T06:49:39.608Z,58.14
2019-02-19T06:52:06.205Z,58.32
2019-02-19T06:54:32.956Z,58.45
2019-02-19T06:56:59.902Z,58.08
2019-02-19T06:59:27.007Z,58.01
2019-02-19T07:01:56.250Z,57.74
2019-02-19T07:04:24.283Z,57.28
2019-02-19T07:06:50.874Z,56.99
2019-02-19T07:09:17.595Z,56.82
2019-02-19T07:11:45.480Z,57.01
2019-02-19T07:14:12.134Z,56.58
2019-02-19T07:16:38.726Z,54.88
2019-02-19T07:19:05.751Z,55.67
2019-02-19T07:21:32.979Z,55.18
2019-02-19T07:24:04.383Z,55.08
2019-02-19T07:26:28.715Z,54.85
2019-02-19T07:28:55.411Z,54.29
2019-02-19T07:31:22.117Z,53.94
2019-02-19T07:33:48.848Z,53.96
2019-02-19T07:36:15.725Z,53.96
2019-02-19T07:38:42.332Z,52.65
2019-02-19T07:41:09.017Z,52.58
2019-02-19T07:43:36.227Z,52.31
2019-02-19T07:46:03.246Z,51.77
2019-02-19T07:48:30.107Z,51.43
2019-02-19T07:50:57.353Z,51.20
2019-02-19T07:53:26.895Z,50.78
2019-02-19T07:55:54.853Z,50.38
2019-02-19T07:58:21.470Z,48.62
2019-02-19T08:00:48.416Z,48.36
2019-02-19T08:03:15.750Z,48.50
2019-02-19T08:05:42.433Z,47.21
2019-02-19T08:08:09.667Z,47.72
2019-02-19T08:10:36.539Z,46.31
2019-02-19T08:13:03.480Z,47.04
2019-02-19T08:15:30.347Z,46.32
2019-02-19T08:17:56.965Z,45.69
2019-02-19T08:20:23.582Z,44.94
2019-02-19T08:22:50.906Z,44.16
2019-02-19T08:25:17.606Z,44.99
2019-02-19T08:27:44.426Z,44.80
2019-02-19T08:30:11.436Z,45.00
2019-02-19T08:32:38.452Z,44.20
2019-02-19T08:35:05.065Z,42.87
2019-02-19T08:37:31.823Z,43.60
2019-02-19T08:39:58.537Z,41.68
2019-02-19T08:42:26.317Z,42.68
2019-02-19T08:44:53.070Z,42.18
2019-02-19T08:47:20.120Z,43.16
2019-02-19T08:49:47.102Z,42.35
2019-02-19T08:52:13.774Z,41.83
2019-02-19T08:54:42.716Z,41.23
2019-02-19T08:57:11.969Z,41.19
2019-02-19T08:59:40.755Z,39.97
2019-02-19T09:02:07.403Z,40.42
2019-02-19T09:04:34.299Z,39.75
2019-02-19T09:07:01.412Z,39.93
2019-02-19T09:09:28.290Z,39.69
2019-02-19T09:11:56.782Z,38.66
2019-02-19T09:14:23.455Z,38.39
2019-02-19T09:16:50.457Z,38.39
2019-02-19T09:19:17.462Z,38.69
2019-02-19T09:21:44.089Z,38.22
2019-02-19T09:24:10.785Z,37.97
2019-02-19T09:26:37.511Z,37.19
2019-02-19T09:29:04.117Z,37.52
2019-02-19T09:31:31.054Z,37.84
2019-02-19T09:33:57.752Z,37.00
2019-02-19T09:36:24.667Z,36.76
2019-02-19T09:38:51.302Z,36.96
2019-02-19T09:41:18.485Z,36.68
2019-02-19T09:43:45.337Z,36.31
2019-02-19T09:46:13.322Z,35.70
2019-02-19T09:48:39.998Z,35.30
2019-02-19T09:51:06.644Z,35.68
2019-02-19T09:53:33.977Z,36.19
2019-02-19T09:56:01.891Z,34.99
2019-02-19T09:58:28.603Z,33.74
2019-02-19T10:00:55.310Z,34.53
2019-02-19T10:03:21.953Z,34.83
2019-02-19T10:05:49.193Z,36.28
2019-02-19T10:08:16.681Z,35.18
2019-02-19T10:10:43.325Z,35.94
2019-02-19T10:13:10.156Z,35.85
2019-02-19T10:15:36.851Z,35.79
2019-02-19T10:18:10.088Z,35.07
2019-02-19T10:20:32.532Z,35.49
2019-02-19T10:22:59.211Z,35.02
2019-02-19T10:25:26.164Z,35.40
2019-02-19T10:27:53.314Z,35.26
2019-02-19T10:30:20.495Z,34.78
2019-02-19T10:32:47.200Z,33.77
2019-02-19T10:35:13.902Z,33.41
2019-02-19T10:37:40.585Z,33.42
2019-02-19T10:40:07.528Z,33.04
2019-02-19T10:42:34.318Z,33.44
2019-02-19T10:47:36.546Z,33.70
2019-02-19T10:50:04.245Z,32.04
2019-02-19T10:52:32.132Z,33.18
2019-02-19T10:54:59.298Z,32.04
2019-02-19T10:57:25.977Z,31.82
2019-02-19T10:59:52.647Z,32.20
2019-02-19T11:02:19.582Z,31.51
2019-02-19T11:04:46.175Z,31.95
2019-02-19T11:07:13.002Z,32.00
2019-02-19T11:09:40.674Z,31.48
2019-02-19T11:12:07.577Z,31.42
2019-02-19T11:14:34.194Z,31.47
2019-02-19T11:17:00.881Z,30.64
2019-02-19T11:19:27.755Z,30.88
2019-02-19T11:21:54.706Z,30.67
2019-02-19T11:24:21.351Z,30.39
2019-02-19T11:26:47.970Z,30.93
2019-02-19T11:29:15.113Z,30.88
2019-02-19T11:31:42.103Z,30.50
2019-02-19T11:34:10.124Z,30.32
2019-02-19T11:36:36.907Z,30.22
2019-02-19T11:39:03.533Z,30.39
2019-02-19T11:41:31.197Z,30.10
2019-02-19T11:43:58.013Z,29.31
2019-02-19T11:46:24.678Z,29.78
2019-02-19T11:48:51.918Z,29.78
2019-02-19T11:51:18.539Z,29.34
2019-02-19T11:53:45.485Z,28.78
2019-02-19T11:56:12.419Z,29.66
2019-02-19T11:58:46.811Z,28.65
2019-02-19T12:01:13.902Z,28.82
2019-02-19T12:03:40.874Z,29.15
2019-02-19T12:06:07.615Z,28.78
2019-02-19T12:08:38.981Z,29.23
2019-02-19T12:11:03.748Z,29.55
2019-02-19T12:13:30.488Z,29.93
2019-02-19T12:15:57.175Z,29.60
2019-02-19T12:18:23.871Z,29.34
2019-02-19T12:20:50.846Z,28.60
2019-02-19T12:23:18.016Z,28.52
2019-02-19T12:25:44.774Z,29.08
2019-02-19T12:28:11.899Z,29.43
2019-02-19T12:30:38.933Z,29.22
2019-02-19T12:33:05.943Z,29.27
2019-02-19T12:35:34.136Z,29.11
2019-02-19T12:38:00.934Z,28.79
2019-02-19T12:40:27.799Z,27.31
2019-02-19T12:42:54.415Z,28.31
2019-02-19T12:45:21.112Z,28.04
2019-02-19T12:47:48.191Z,27.98
2019-02-19T12:50:14.982Z,28.51
2019-02-19T12:52:42.374Z,28.61
2019-02-19T12:55:09.292Z,28.31
2019-02-19T12:57:36.892Z,27.81
2019-02-19T13:00:04.568Z,27.26
2019-02-19T13:02:31.361Z,27.27
2019-02-19T13:04:58.504Z,27.56
2019-02-19T13:07:26.199Z,27.50
2019-02-19T13:09:52.892Z,27.27
2019-02-19T13:12:19.514Z,27.14
2019-02-19T13:14:46.589Z,27.85
2019-02-19T13:17:13.519Z,26.41
2019-02-19T13:19:40.430Z,26.87
2019-02-19T13:22:07.118Z,26.85
2019-02-19T13:24:34.961Z,26.51
2019-02-19T13:27:01.593Z,26.53
2019-02-19T13:29:28.242Z,25.53
2019-02-19T13:31:54.826Z,26.24
2019-02-19T13:34:21.908Z,26.33
2019-02-19T13:36:48.747Z,27.39
2019-02-19T13:39:15.408Z,26.24
2019-02-19T13:41:42.283Z,26.62
2019-02-19T13:44:08.927Z,25.49
2019-02-19T13:46:35.553Z,27.14
2019-02-19T13:49:02.208Z,26.86
2019-02-19T13:51:29.060Z,27.08
2019-02-19T13:53:55.682Z,26.60
2019-02-19T13:56:22.493Z,26.36
2019-02-19T13:58:49.152Z,26.63
2019-02-19T14:01:15.903Z,26.58
2019-02-19T14:03:42.516Z,26.58
2019-02-19T14:06:09.477Z,27.35
2019-02-19T14:08:36.335Z,26.08
2019-02-19T14:11:03.006Z,25.93
2019-02-19T14:13:29.703Z,26.84
2019-02-19T14:15:56.311Z,25.94
2019-02-19T14:18:24.620Z,26.66
2019-02-19T14:20:51.431Z,26.06
2019-02-19T14:23:19.215Z,26.85
2019-02-19T14:25:45.955Z,26.71
2019-02-19T14:28:12.939Z,26.58
2019-02-19T14:30:39.707Z,25.75
2019-02-19T14:33:06.680Z,25.18
2019-02-19T14:35:33.533Z,25.26
2019-02-19T14:38:00.168Z,25.69
2019-02-19T14:40:26.791Z,26.36
2019-02-19T14:42:53.890Z,25.69
2019-02-19T14:45:20.746Z,25.95
2019-02-19T14:47:50.413Z,26.06
2019-02-19T14:50:19.756Z,26.42
2019-02-19T14:52:47.969Z,26.05
2019-02-19T14:55:16.415Z,25.63
2019-02-19T14:57:45.778Z,26.37
2019-02-19T15:00:13.164Z,26.22
2019-02-19T15:02:42.280Z,26.00
2019-02-19T15:05:13.533Z,26.03
2019-02-19T15:07:44.053Z,25.89
2019-02-19T15:10:10.990Z,26.07
2019-02-19T15:12:38.220Z,25.85
2019-02-19T15:15:06.299Z,26.06
2019-02-19T15:17:36.417Z,25.51
2019-02-19T15:20:07.556Z,25.27
2019-02-19T15:22:41.358Z,25.37
2019-02-19T15:25:11.411Z,25.63
2019-02-19T15:27:39.827Z,25.96
2019-02-19T15:30:08.289Z,25.81
2019-02-19T15:32:34.930Z,25.71
2019-02-19T15:35:12.333Z,25.68
2019-02-19T15:37:39.190Z,25.99
2019-02-19T15:40:06.263Z,26.32
2019-02-19T15:42:37.165Z,26.63
2019-02-19T15:45:06.254Z,27.25
2019-02-19T15:47:33.050Z,27.33
2019-02-19T15:50:01.840Z,27.11
2019-02-19T15:52:35.152Z,27.34
2019-02-19T15:55:04.447Z,27.51
2019-02-19T15:57:38.516Z,27.47
2019-02-19T16:00:03.507Z,28.20
2019-02-19T16:02:32.148Z,28.76
2019-02-19T16:05:02.055Z,28.50
2019-02-19T16:07:33.398Z,29.13
2019-02-19T16:10:01.040Z,29.51
2019-02-19T16:12:28.556Z,29.40
2019-02-19T16:14:57.535Z,29.67
2019-02-19T16:17:25.162Z,29.92
2019-02-19T16:19:56.953Z,30.33
2019-02-19T16:22:22.038Z,30.61
2019-02-19T16:24:49.845Z,30.94
2019-02-19T16:27:17.712Z,31.02
2019-02-19T16:29:47.425Z,31.35
2019-02-19T16:32:15.229Z,31.76
2019-02-19T16:34:44.478Z,32.21
2019-02-19T16:37:12.376Z,32.62
2019-02-19T16:39:42.277Z,32.93
2019-02-19T16:42:12.018Z,33.22
2019-02-19T16:44:43.269Z,33.15
2019-02-19T16:47:11.058Z,33.49
2019-02-19T16:49:41.786Z,33.93
2019-02-19T16:52:13.034Z,34.00
2019-02-19T16:54:42.086Z,34.43
2019-02-19T16:57:10.362Z,34.45
2019-02-19T16:59:41.349Z,34.63
2019-02-19T17:02:08.273Z,34.80
2019-02-19T17:04:35.067Z,34.87
2019-02-19T17:07:01.912Z,35.05
2019-02-19T17:09:28.550Z,35.36
2019-02-19T17:11:55.728Z,35.68
2019-02-19T17:14:32.763Z,35.89
2019-02-19T17:16:55.281Z,35.98
2019-02-19T17:19:22.888Z,36.16
2019-02-19T17:21:50.597Z,36.24
2019-02-19T17:24:18.698Z,36.49
2019-02-19T17:26:47.371Z,36.64
2019-02-19T17:29:15.054Z,36.88
2019-02-19T17:31:42.876Z,36.71
2019-02-19T17:34:10.734Z,36.46
2019-02-19T17:36:40.609Z,37.00
2019-02-19T17:39:11.555Z,37.25
2019-02-19T17:41:39.433Z,37.51
2019-02-19T17:44:06.113Z,38.53
2019-02-19T17:46:34.005Z,38.82
2019-02-19T17:49:08.058Z,38.79
2019-02-19T17:51:35.403Z,38.79
2019-02-19T17:54:03.144Z,38.89
2019-02-19T17:56:31.016Z,38.77
2019-02-19T17:59:02.465Z,38.77
2019-02-19T18:01:33.350Z,38.82
2019-02-19T18:04:00.310Z,39.11
2019-02-19T18:06:26.952Z,39.71
2019-02-19T18:08:53.555Z,40.33
2019-02-19T18:11:20.730Z,40.46
2019-02-19T18:13:47.426Z,40.47
2019-02-19T18:16:15.036Z,40.40
2019-02-19T18:18:41.794Z,40.24
2019-02-19T18:21:08.970Z,40.71
2019-02-19T18:23:35.561Z,40.72
2019-02-19T18:26:02.160Z,40.96
2019-02-19T18:28:28.942Z,41.50
2019-02-19T18:30:55.610Z,42.00
2019-02-19T18:33:22.820Z,41.83
2019-02-19T18:35:49.673Z,42.03
2019-02-19T18:38:16.863Z,42.66
2019-02-19T18:40:43.861Z,42.58
2019-02-19T18:43:10.804Z,42.45
2019-02-19T18:45:39.245Z,41.99
2019-02-19T18:48:06.821Z,41.45
2019-02-19T18:50:33.952Z,41.63
2019-02-19T18:53:00.736Z,41.71
2019-02-19T18:55:27.520Z,41.98
2019-02-19T18:57:54.510Z,42.32
2019-02-19T19:00:22.033Z,43.03
2019-02-19T19:02:49.794Z,43.42
2019-02-19T19:05:17.279Z,43.39
2019-02-19T19:07:45.016Z,43.48
2019-02-19T19:10:11.657Z,43.67
2019-02-19T19:12:39.553Z,43.55
2019-02-19T19:15:07.181Z,43.45
2019-02-19T19:17:33.851Z,43.64
2019-02-19T19:20:00.497Z,43.91
2019-02-19T19:22:27.574Z,44.04
2019-02-19T19:24:54.492Z,43.77
2019-02-19T19:27:21.372Z,43.75
2019-02-19T19:29:48.019Z,43.73
2019-02-19T19:32:14.962Z,43.68
2019-02-19T19:34:41.868Z,43.71
2019-02-19T19:37:10.784Z,44.01
2019-02-19T19:39:37.663Z,44.35
2019-02-19T19:42:04.668Z,44.75
2019-02-19T19:44:31.664Z,44.98
2019-02-19T19:46:58.708Z,45.05
2019-02-19T19:49:25.911Z,45.08
2019-02-19T19:51:52.670Z,45.06
2019-02-19T19:54:19.623Z,45.52
2019-02-19T19:56:46.304Z,44.87
2019-02-19T19:59:13.461Z,45.99
2019-02-19T20:01:40.341Z,46.55
2019-02-19T20:04:07.041Z,46.35
2019-02-19T20:06:33.941Z,45.74
2019-02-19T20:09:00.602Z,45.49
2019-02-19T20:11:27.492Z,45.55
2019-02-19T20:13:54.398Z,45.43
2019-02-19T20:16:21.828Z,46.39
2019-02-19T20:18:50.665Z,46.39
2019-02-19T20:21:26.576Z,46.47
2019-02-19T20:23:49.988Z,46.31
2019-02-19T20:26:16.929Z,46.20
2019-02-19T20:28:43.962Z,46.46
2019-02-19T20:31:11.031Z,47.01
2019-02-19T20:33:38.136Z,46.63
2019-02-19T20:36:04.886Z,46.29
2019-02-19T20:38:31.897Z,47.65
2019-02-19T20:40:58.740Z,48.68
2019-02-19T20:43:25.643Z,48.22
2019-02-19T20:45:52.263Z,47.34
2019-02-19T20:48:19.226Z,47.23
2019-02-19T20:50:45.838Z,47.54
2019-02-19T20:53:12.802Z,47.70
2019-02-19T20:55:40.631Z,47.87
2019-02-19T20:58:07.149Z,48.14
2019-02-19T21:00:33.716Z,48.58
2019-02-19T21:03:00.387Z,49.12
2019-02-19T21:05:27.044Z,49.97
2019-02-19T21:07:53.635Z,49.75
2019-02-19T21:10:20.457Z,49.31
2019-02-19T21:12:47.260Z,48.23
2019-02-19T21:15:14.369Z,48.17
2019-02-19T21:17:41.019Z,48.26
2019-02-19T21:20:07.558Z,48.29
2019-02-19T21:22:34.363Z,49.47
2019-02-19T21:25:01.071Z,49.95
2019-02-19T21:27:27.641Z,49.81
2019-02-19T21:29:55.148Z,50.09
2019-02-19T21:32:21.680Z,49.84
2019-02-19T21:34:48.450Z,50.02
2019-02-19T21:37:15.555Z,50.56
2019-02-19T21:39:42.339Z,50.58
2019-02-19T21:42:08.886Z,50.40
2019-02-19T21:44:35.459Z,50.18
2019-02-19T21:47:02.016Z,50.08
2019-02-19T21:49:28.764Z,50.04
2019-02-19T21:51:55.946Z,50.06
2019-02-19T21:54:22.696Z,50.35
2019-02-19T21:56:49.560Z,50.30
2019-02-19T21:59:16.343Z,50.03
2019-02-19T22:01:45.989Z,50.32
2019-02-19T22:04:12.859Z,50.54
2019-02-19T22:06:39.429Z,51.59
2019-02-19T22:09:06.100Z,52.10
2019-02-19T22:11:33.081Z,51.97
2019-02-19T22:13:59.791Z,51.90
2019-02-19T22:16:26.357Z,51.81
2019-02-19T22:18:53.194Z,51.96
2019-02-19T22:21:20.035Z,51.65
2019-02-19T22:23:46.687Z,51.02
2019-02-19T22:26:13.349Z,51.02
2019-02-19T22:28:40.308Z,51.43
2019-02-19T22:31:06.920Z,51.78
2019-02-19T22:33:34.310Z,52.30
2019-02-19T22:36:01.190Z,52.26
2019-02-19T22:38:27.781Z,51.91
2019-02-19T22:40:55.431Z,52.15
2019-02-19T22:43:22.461Z,51.80
2019-02-19T22:45:49.142Z,52.12
2019-02-19T22:48:15.804Z,52.21
2019-02-19T22:50:43.063Z,52.09
2019-02-19T22:53:09.686Z,51.88
2019-02-19T22:55:36.676Z,51.52
2019-02-19T22:58:03.318Z,51.41
2019-02-19T23:00:30.241Z,51.22
2019-02-19T23:02:56.836Z,51.81
2019-02-19T23:05:23.783Z,52.51
2019-02-19T23:07:50.399Z,52.32
2019-02-19T23:10:17.028Z,52.69
2019-02-19T23:12:43.960Z,52.29
2019-02-19T23:15:10.906Z,52.21
2019-02-19T23:17:37.893Z,52.34
2019-02-19T23:20:04.542Z,52.14
2019-02-19T23:22:31.207Z,52.67
2019-02-19T23:24:58.111Z,52.76
2019-02-19T23:27:25.054Z,52.95
2019-02-19T23:29:52.057Z,52.86
2019-02-19T23:32:19.236Z,52.88
2019-02-19T23:34:46.235Z,52.64
2019-02-19T23:37:13.542Z,53.03
2019-02-19T23:39:43.566Z,53.03
2019-02-19T23:42:09.066Z,52.57
2019-02-19T23:44:35.738Z,52.70
2019-02-19T23:47:02.377Z,53.15
2019-02-19T23:49:29.358Z,53.15
2019-02-19T23:51:56.091Z,52.83
2019-02-19T23:54:22.751Z,52.91
2019-02-19T23:56:49.662Z,53.50
2019-02-19T23:59:16.592Z,53.47
